Time;durP1;ratioP1;P1;durP2;ratioP2;P2;SDS_P1;SDS_P2;PMS_P1;PMS_P2;Temp;Humidity;BMP_temperature;BMP_pressure;BME280_temperature;BME280_humidity;BME280_pressure;Samples;Min_cycle;Max_cycle;Signal;HPM_P1;HPM_P2
2022/04/02 00:00:46;;;;;;;2.53;1.55;;;1.10;99.90;;;;;;4973209;28;20026;-45
2022/04/02 00:03:11;;;;;;;4.90;2.10;;;1.10;99.90;;;;;;4971348;28;20150;-47
2022/04/02 00:05:37;;;;;;;3.15;1.75;;;1.20;99.90;;;;;;4972687;28;20046;-47
2022/04/02 00:08:03;;;;;;;2.35;1.98;;;1.20;99.90;;;;;;4972755;28;20031;-46
2022/04/02 00:10:29;;;;;;;4.45;2.05;;;1.10;99.90;;;;;;4972451;28;20204;-46
2022/04/02 00:12:56;;;;;;;1.67;1.52;;;1.10;99.90;;;;;;4972620;28;20106;-47
2022/04/02 00:15:22;;;;;;;3.45;2.00;;;1.10;99.90;;;;;;4972500;28;20468;-48
2022/04/02 00:17:48;;;;;;;2.75;1.92;;;1.10;99.90;;;;;;4972330;28;20102;-46
2022/04/02 00:20:14;;;;;;;1.95;1.75;;;1.10;99.90;;;;;;4972696;28;20122;-45
2022/04/02 00:23:35;;;;;;;4.75;2.05;;;1.10;99.90;;;;;;4972063;28;20149;-47
2022/04/02 00:25:25;;;;;;;3.30;1.60;;;1.10;99.90;;;;;;4971722;28;20043;-46
2022/04/02 00:27:50;;;;;;;3.80;1.75;;;1.00;99.90;;;;;;4972288;28;20081;-44
2022/04/02 00:30:16;;;;;;;3.03;2.17;;;1.10;99.90;;;;;;4971621;28;20709;-47
2022/04/02 00:32:41;;;;;;;3.67;2.10;;;1.00;99.90;;;;;;4971566;28;20613;-46
2022/04/02 00:35:08;;;;;;;4.78;2.20;;;1.00;99.90;;;;;;4971939;28;20039;-44
2022/04/02 00:37:34;;;;;;;2.38;1.48;;;1.00;99.90;;;;;;4969158;28;20867;-47
2022/04/02 00:40:00;;;;;;;2.28;1.45;;;1.00;99.90;;;;;;4972281;28;20035;-48
2022/04/02 00:42:26;;;;;;;2.22;1.90;;;1.00;99.90;;;;;;4960150;28;20063;-46
2022/04/02 00:44:51;;;;;;;6.07;2.17;;;1.00;99.90;;;;;;4961834;28;20516;-45
2022/04/02 00:47:17;;;;;;;3.08;1.77;;;1.00;99.90;;;;;;4972069;28;20034;-47
2022/04/02 00:49:43;;;;;;;2.42;1.63;;;1.10;99.90;;;;;;4971883;28;20448;-49
2022/04/02 00:52:08;;;;;;;2.53;1.83;;;1.00;99.90;;;;;;4971937;28;20038;-46
2022/04/02 00:54:34;;;;;;;2.55;2.17;;;1.00;99.90;;;;;;4971639;28;20039;-46
2022/04/02 00:57:01;;;;;;;2.15;1.90;;;1.10;99.90;;;;;;4971998;28;20043;-46
2022/04/02 00:59:26;;;;;;;5.25;2.38;;;1.10;99.90;;;;;;4968798;28;20129;-44
2022/04/02 01:01:52;;;;;;;2.42;1.90;;;1.00;99.90;;;;;;4969218;28;20113;-47
2022/04/02 01:04:18;;;;;;;2.95;2.15;;;1.10;99.90;;;;;;4970148;28;20026;-47
2022/04/02 01:06:44;;;;;;;3.97;2.35;;;1.10;99.90;;;;;;4971861;28;20477;-46
2022/04/02 01:09:10;;;;;;;2.53;1.70;;;1.10;99.90;;;;;;4969772;28;20038;-45
2022/04/02 01:11:40;;;;;;;3.28;1.83;;;1.10;99.90;;;;;;4971637;28;20085;-48
2022/04/02 01:14:07;;;;;;;4.10;2.33;;;1.10;99.90;;;;;;4971136;28;20033;-45
2022/04/02 01:16:34;;;;;;;3.80;2.28;;;1.10;99.90;;;;;;4971872;28;20019;-48
2022/04/02 01:19:00;;;;;;;2.10;1.90;;;1.10;99.90;;;;;;4971574;28;20179;-49
2022/04/02 01:21:29;;;;;;;2.45;2.03;;;1.10;99.90;;;;;;4971437;28;20477;-48
2022/04/02 01:23:55;;;;;;;2.83;2.15;;;1.10;99.90;;;;;;4970403;28;20059;-46
2022/04/02 01:26:21;;;;;;;2.55;1.85;;;1.20;99.90;;;;;;4969474;28;20509;-48
2022/04/02 01:28:53;;;;;;;3.30;2.08;;;1.20;99.90;;;;;;4971339;28;20177;-46
2022/04/02 01:31:20;;;;;;;2.55;2.00;;;1.20;99.90;;;;;;4971068;28;20073;-46
2022/04/02 01:33:48;;;;;;;2.20;1.80;;;1.20;99.90;;;;;;4970537;28;20039;-48
2022/04/02 01:36:14;;;;;;;5.13;2.13;;;1.10;99.90;;;;;;4969897;28;20031;-49
2022/04/02 01:38:40;;;;;;;2.88;1.90;;;1.10;99.90;;;;;;4971006;28;20023;-46
2022/04/02 01:41:06;;;;;;;3.30;2.10;;;1.10;99.90;;;;;;4971181;28;20350;-49
2022/04/02 01:43:32;;;;;;;3.17;1.80;;;1.10;99.90;;;;;;4970341;28;20481;-48
2022/04/02 01:45:59;;;;;;;2.30;1.90;;;1.10;99.90;;;;;;4970961;28;20042;-47
2022/04/02 01:48:25;;;;;;;2.47;2.05;;;1.10;99.90;;;;;;4971044;28;20058;-47
2022/04/02 01:50:51;;;;;;;3.03;2.10;;;1.10;99.90;;;;;;4970028;28;20034;-47
2022/04/02 01:53:18;;;;;;;2.83;2.25;;;1.10;99.90;;;;;;4970967;28;20037;-47
2022/04/02 01:55:44;;;;;;;2.20;1.90;;;1.00;99.90;;;;;;4971084;28;20031;-47
2022/04/02 01:58:09;;;;;;;3.10;2.10;;;1.00;99.90;;;;;;4970929;28;20030;-50
2022/04/02 02:00:35;;;;;;;3.30;2.50;;;1.00;99.90;;;;;;4970702;28;20039;-48
2022/04/02 02:03:01;;;;;;;3.97;2.10;;;1.00;99.90;;;;;;4970542;28;20045;-49
2022/04/02 02:05:27;;;;;;;3.15;2.20;;;1.00;99.90;;;;;;4970765;28;20041;-48
2022/04/02 02:07:53;;;;;;;4.38;2.42;;;1.00;99.90;;;;;;4970622;28;20101;-45
2022/04/02 02:10:19;;;;;;;3.50;2.50;;;0.90;99.90;;;;;;4969605;28;20031;-45
2022/04/02 02:12:46;;;;;;;2.72;2.22;;;0.90;99.90;;;;;;4970210;28;20118;-48
2022/04/02 02:15:16;;;;;;;3.42;2.45;;;0.80;99.90;;;;;;4969556;28;20038;-45
2022/04/02 02:17:44;;;;;;;3.90;2.55;;;0.80;99.90;;;;;;4970319;28;20436;-45
2022/04/02 02:20:11;;;;;;;4.03;2.83;;;0.80;99.90;;;;;;4970274;28;20035;-47
2022/04/02 02:22:38;;;;;;;6.10;2.80;;;0.80;99.90;;;;;;4969614;28;20541;-47
2022/04/02 02:25:04;;;;;;;3.10;2.20;;;0.80;99.90;;;;;;4968306;28;20026;-46
2022/04/02 02:27:30;;;;;;;7.63;2.33;;;0.80;99.90;;;;;;4970121;28;20077;-44
2022/04/02 02:29:55;;;;;;;4.03;2.22;;;0.80;99.90;;;;;;4970202;28;20031;-47
2022/04/02 02:32:21;;;;;;;3.50;2.40;;;0.80;99.90;;;;;;4970356;28;20035;-48
2022/04/02 02:37:31;;;;;;;5.22;2.65;;;0.70;99.90;;;;;;4957715;28;20073;-46
2022/04/02 02:39:56;;;;;;;3.17;2.47;;;0.80;99.90;;;;;;4955516;28;20050;-46
2022/04/02 02:42:22;;;;;;;4.30;2.33;;;0.70;99.90;;;;;;4960952;28;20066;-47
2022/04/02 02:44:48;;;;;;;4.65;2.63;;;0.70;99.90;;;;;;4969805;28;20085;-47
2022/04/02 02:47:13;;;;;;;5.55;2.90;;;0.70;99.90;;;;;;4969846;28;20460;-45
2022/04/02 02:49:39;;;;;;;3.95;2.80;;;0.70;99.90;;;;;;4969662;28;20237;-46
2022/04/02 02:52:05;;;;;;;2.97;2.70;;;0.70;99.90;;;;;;4954859;28;20023;-47
2022/04/02 02:54:32;;;;;;;4.45;2.42;;;0.60;99.90;;;;;;4970511;28;20030;-47
2022/04/02 02:56:58;;;;;;;5.80;2.65;;;0.60;99.90;;;;;;4970625;28;20018;-46
2022/04/02 02:59:23;;;;;;;4.57;2.78;;;0.50;99.90;;;;;;4969964;28;20914;-44
2022/04/02 03:01:49;;;;;;;2.30;2.03;;;0.50;99.90;;;;;;4970017;28;20063;-45
2022/04/02 03:04:14;;;;;;;7.10;2.67;;;0.50;99.90;;;;;;4970108;28;20042;-46
2022/04/02 03:06:40;;;;;;;4.78;2.83;;;0.50;99.90;;;;;;4970447;28;20074;-46
2022/04/02 03:09:06;;;;;;;3.20;2.22;;;0.40;99.90;;;;;;4970060;28;20114;-46
2022/04/02 03:11:32;;;;;;;6.13;2.63;;;0.40;99.90;;;;;;4970678;28;20019;-46
2022/04/02 03:13:57;;;;;;;4.75;2.70;;;0.40;99.90;;;;;;4969936;28;20034;-48
2022/04/02 03:16:23;;;;;;;4.15;2.63;;;0.40;99.90;;;;;;4968604;28;20019;-46
2022/04/02 03:18:48;;;;;;;3.65;2.50;;;0.40;99.90;;;;;;4970284;28;20505;-46
2022/04/02 03:21:14;;;;;;;4.25;2.40;;;0.30;99.90;;;;;;4970069;28;20023;-45
2022/04/02 03:23:40;;;;;;;3.88;2.85;;;0.30;99.90;;;;;;4969774;28;20031;-47
2022/04/02 03:26:06;;;;;;;6.38;3.15;;;0.30;99.90;;;;;;4969933;28;20091;-46
2022/04/02 03:28:32;;;;;;;3.45;2.22;;;0.30;99.90;;;;;;4969701;28;20034;-45
2022/04/02 03:30:58;;;;;;;3.83;2.60;;;0.30;99.90;;;;;;4969915;28;20050;-47
2022/04/02 03:33:23;;;;;;;3.40;2.55;;;0.30;99.90;;;;;;4969286;28;20500;-49
2022/04/02 03:35:49;;;;;;;3.28;2.33;;;0.30;99.90;;;;;;4969898;28;20027;-47
2022/04/02 03:38:15;;;;;;;7.78;2.80;;;0.20;99.90;;;;;;4972430;28;20062;-46
2022/04/02 03:40:41;;;;;;;3.53;2.60;;;0.20;99.90;;;;;;4972076;28;20037;-47
2022/04/02 03:43:06;;;;;;;6.53;2.72;;;0.20;99.90;;;;;;4972773;28;20102;-46
2022/04/02 03:45:32;;;;;;;3.88;2.78;;;0.20;99.90;;;;;;4972801;28;20038;-48
2022/04/02 03:47:58;;;;;;;2.88;2.40;;;0.20;99.90;;;;;;4973537;28;20031;-48
2022/04/02 03:50:24;;;;;;;3.45;2.17;;;0.20;99.90;;;;;;4972118;28;20031;-46
2022/04/02 03:52:49;;;;;;;2.90;2.60;;;0.10;99.90;;;;;;4972725;28;20053;-46
2022/04/02 03:55:15;;;;;;;4.07;2.75;;;0.10;99.90;;;;;;4973064;28;20026;-46
2022/04/02 03:57:41;;;;;;;3.67;2.65;;;0.10;99.90;;;;;;4972885;28;20027;-47
2022/04/02 04:00:08;;;;;;;3.45;2.47;;;0.10;99.90;;;;;;4972866;28;20041;-46
2022/04/02 04:02:37;;;;;;;3.00;2.47;;;0.10;99.90;;;;;;4972132;28;20031;-47
2022/04/02 04:05:05;;;;;;;5.38;2.67;;;0.00;99.90;;;;;;4972489;28;20494;-47
2022/04/02 04:07:30;;;;;;;3.47;2.50;;;0.00;99.90;;;;;;4971289;28;20620;-46
2022/04/02 04:09:56;;;;;;;6.15;2.40;;;0.00;99.90;;;;;;4971915;28;20074;-47
2022/04/02 04:12:21;;;;;;;3.20;2.38;;;0.00;99.90;;;;;;4972104;28;20397;-48
2022/04/02 04:14:47;;;;;;;3.92;2.40;;;0.00;99.90;;;;;;4972635;28;20059;-46
2022/04/02 04:17:13;;;;;;;3.40;2.58;;;0.00;99.90;;;;;;4972146;28;20113;-46
2022/04/02 04:19:38;;;;;;;3.60;2.67;;;0.00;99.90;;;;;;4972306;28;20037;-47
2022/04/02 04:22:06;;;;;;;3.35;2.60;;;-0.10;99.90;;;;;;4972342;28;20034;-49
2022/04/02 04:24:32;;;;;;;6.45;2.53;;;-0.10;99.90;;;;;;4972418;28;20401;-47
2022/04/02 04:26:58;;;;;;;5.18;2.67;;;-0.10;99.90;;;;;;4972255;28;20027;-46
2022/04/02 04:29:23;;;;;;;5.10;2.53;;;-0.10;99.90;;;;;;4972113;28;20057;-49
2022/04/02 04:31:49;;;;;;;3.53;3.03;;;-0.10;99.90;;;;;;4972139;28;20102;-45
2022/04/02 04:34:17;;;;;;;5.97;2.90;;;-0.10;99.90;;;;;;4972149;28;20117;-48
2022/04/02 04:36:43;;;;;;;3.53;2.75;;;-0.10;99.90;;;;;;4971437;28;20019;-46
2022/04/02 04:39:08;;;;;;;3.88;2.60;;;-0.20;99.90;;;;;;4971739;28;20438;-48
2022/04/02 04:41:36;;;;;;;5.65;3.08;;;-0.20;99.90;;;;;;4972315;28;20023;-46
2022/04/02 04:44:02;;;;;;;2.88;1.98;;;-0.10;99.90;;;;;;4971989;28;20640;-46
2022/04/02 04:46:28;;;;;;;4.80;2.40;;;-0.20;99.90;;;;;;4971859;28;20042;-46
2022/04/02 04:48:54;;;;;;;3.63;2.45;;;-0.20;99.90;;;;;;4971441;28;20147;-44
2022/04/02 04:51:23;;;;;;;3.67;2.30;;;-0.20;99.90;;;;;;4972157;28;20089;-45
2022/04/02 04:53:49;;;;;;;3.15;2.10;;;-0.20;99.90;;;;;;4971513;28;20023;-50
2022/04/02 04:56:15;;;;;;;4.40;2.13;;;-0.20;99.90;;;;;;4971909;28;20516;-45
2022/04/02 04:58:40;;;;;;;4.43;2.15;;;-0.20;99.90;;;;;;4971865;28;20027;-46
2022/04/02 05:01:09;;;;;;;4.07;2.40;;;-0.30;99.90;;;;;;4971738;28;20034;-46
2022/04/02 05:03:35;;;;;;;3.85;1.90;;;-0.20;99.90;;;;;;4971463;28;20095;-48
2022/04/02 05:06:01;;;;;;;3.70;2.47;;;-0.20;99.90;;;;;;4970591;28;20030;-46
2022/04/02 05:08:30;;;;;;;3.05;2.08;;;-0.20;99.90;;;;;;4971814;28;20038;-47
2022/04/02 05:10:55;;;;;;;3.75;1.73;;;-0.20;99.90;;;;;;4971158;28;20033;-48
2022/04/02 05:13:21;;;;;;;4.72;2.30;;;-0.20;99.90;;;;;;4971297;28;20031;-46
2022/04/02 05:15:47;;;;;;;4.45;2.30;;;-0.30;99.90;;;;;;4971588;28;20084;-46
2022/04/02 05:18:13;;;;;;;3.88;2.15;;;-0.20;99.90;;;;;;4971931;28;20650;-46
2022/04/02 05:20:39;;;;;;;3.78;2.45;;;-0.20;99.90;;;;;;4971742;28;20375;-47
2022/04/02 05:23:06;;;;;;;2.80;1.83;;;-0.20;99.90;;;;;;4971132;28;20031;-46
2022/04/02 05:25:35;;;;;;;2.88;2.22;;;-0.20;99.90;;;;;;4971370;28;20462;-48
2022/04/02 05:28:05;;;;;;;3.22;2.38;;;-0.10;99.90;;;;;;4971456;28;20057;-44
2022/04/02 05:30:32;;;;;;;4.45;2.22;;;-0.20;99.90;;;;;;4971200;28;20031;-48
2022/04/02 05:32:58;;;;;;;3.70;2.17;;;-0.10;99.90;;;;;;4970792;28;20081;-47
2022/04/02 05:35:24;;;;;;;3.60;2.35;;;-0.20;99.90;;;;;;4971787;28;20030;-45
2022/04/02 05:37:49;;;;;;;4.53;2.38;;;-0.10;99.90;;;;;;4971157;28;20111;-46
2022/04/02 05:40:15;;;;;;;4.38;2.75;;;-0.10;99.90;;;;;;4971341;28;20022;-45
2022/04/02 05:42:41;;;;;;;2.95;1.85;;;-0.10;99.90;;;;;;4971205;28;20035;-46
2022/04/02 05:45:07;;;;;;;3.38;2.40;;;-0.10;99.90;;;;;;4971582;28;20031;-50
2022/04/02 05:47:49;;;;;;;4.00;2.17;;;-0.10;99.90;;;;;;4971562;28;20027;-47
2022/04/02 05:50:16;;;;;;;2.75;2.40;;;-0.10;99.90;;;;;;4971236;28;20434;-46
2022/04/02 05:52:41;;;;;;;3.22;2.20;;;-0.20;99.90;;;;;;4970657;28;20114;-46
2022/04/02 05:55:08;;;;;;;3.40;2.53;;;-0.20;99.90;;;;;;4970639;28;20114;-48
2022/04/02 05:57:36;;;;;;;2.92;2.13;;;-0.20;99.90;;;;;;4971060;28;20034;-47
2022/04/02 06:00:04;;;;;;;4.38;2.38;;;-0.20;99.90;;;;;;4970073;28;20027;-46
2022/04/02 06:02:31;;;;;;;3.55;2.20;;;-0.20;99.90;;;;;;4970276;28;20034;-47
2022/04/02 06:04:57;;;;;;;2.60;1.98;;;-0.10;99.90;;;;;;4971036;28;20027;-47
2022/04/02 06:07:22;;;;;;;2.95;2.33;;;-0.10;99.90;;;;;;4970783;28;20031;-48
2022/04/02 06:09:48;;;;;;;4.32;2.78;;;-0.10;99.90;;;;;;4969942;28;20039;-46
2022/04/02 06:12:13;;;;;;;2.63;2.35;;;-0.10;99.90;;;;;;4970638;28;20057;-48
2022/04/02 06:14:39;;;;;;;4.22;2.30;;;-0.10;99.90;;;;;;4970179;28;20062;-46
2022/04/02 06:17:04;;;;;;;2.47;1.75;;;0.00;99.90;;;;;;4970926;28;20043;-45
2022/04/02 06:19:30;;;;;;;3.20;2.08;;;0.00;99.90;;;;;;4970137;28;20490;-46
2022/04/02 06:21:56;;;;;;;3.97;2.72;;;0.00;99.90;;;;;;4970631;28;20058;-47
2022/04/02 06:24:21;;;;;;;5.07;2.50;;;0.10;99.90;;;;;;4970461;28;20404;-48
2022/04/02 06:26:47;;;;;;;4.15;2.20;;;0.10;99.90;;;;;;4970722;28;20058;-46
2022/04/02 06:29:12;;;;;;;2.72;2.05;;;0.10;99.90;;;;;;4970540;28;20054;-46
2022/04/02 06:31:39;;;;;;;4.78;2.20;;;0.20;99.90;;;;;;4970269;28;20038;-45
2022/04/02 06:34:05;;;;;;;2.50;2.08;;;0.20;99.90;;;;;;4969818;28;20031;-46
2022/04/02 06:36:31;;;;;;;2.63;2.00;;;0.30;99.90;;;;;;4970684;28;20454;-46
2022/04/02 06:38:56;;;;;;;3.72;2.33;;;0.40;99.90;;;;;;4970031;28;20125;-47
2022/04/02 06:41:22;;;;;;;2.95;1.90;;;0.40;99.90;;;;;;4970607;28;20043;-46
2022/04/02 06:43:48;;;;;;;5.60;2.88;;;0.50;99.90;;;;;;4970198;28;20114;-50
2022/04/02 06:46:13;;;;;;;8.10;6.47;;;0.60;99.90;;;;;;4970750;28;20046;-47
2022/04/02 06:48:39;;;;;;;4.05;3.28;;;0.60;99.90;;;;;;4970550;28;20109;-45
2022/04/02 06:51:07;;;;;;;2.15;1.70;;;0.70;99.90;;;;;;4970021;28;20039;-44
2022/04/02 06:53:33;;;;;;;3.15;1.98;;;0.80;99.90;;;;;;4970049;28;20026;-47
2022/04/02 06:55:59;;;;;;;1.88;1.58;;;0.80;99.90;;;;;;4970541;28;20039;-46
2022/04/02 06:58:32;;;;;;;2.40;2.05;;;0.90;99.90;;;;;;4970332;28;20401;-45
2022/04/02 07:00:57;;;;;;;1.70;1.50;;;1.00;99.90;;;;;;4970231;28;20035;-45
2022/04/02 07:03:23;;;;;;;3.50;2.25;;;1.00;99.90;;;;;;4970281;28;20054;-47
2022/04/02 07:05:49;;;;;;;2.10;1.85;;;1.00;99.90;;;;;;4969965;28;20034;-47
2022/04/02 07:08:15;;;;;;;3.15;1.55;;;1.10;99.90;;;;;;4970257;28;20117;-46
2022/04/02 07:10:40;;;;;;;2.63;1.60;;;1.10;99.90;;;;;;4969647;28;20122;-46
2022/04/02 07:13:06;;;;;;;2.58;1.73;;;1.20;99.90;;;;;;4973595;28;20039;-48
2022/04/02 07:15:32;;;;;;;2.00;1.38;;;1.30;99.90;;;;;;4973866;28;20035;-47
2022/04/02 07:18:05;;;;;;;5.97;1.90;;;1.30;99.90;;;;;;4973982;28;20027;-47
2022/04/02 07:20:34;;;;;;;2.03;1.77;;;1.40;99.90;;;;;;4972222;28;20046;-46
2022/04/02 07:23:01;;;;;;;3.35;1.52;;;1.50;99.90;;;;;;4965844;28;20066;-46
2022/04/02 07:25:28;;;;;;;1.60;1.50;;;1.70;99.90;;;;;;4966266;28;20038;-46
2022/04/02 07:27:55;;;;;;;3.10;1.85;;;1.80;99.90;;;;;;4963943;28;20104;-45
2022/04/02 07:30:22;;;;;;;2.60;1.50;;;1.90;99.90;;;;;;4973803;28;20378;-47
2022/04/02 07:32:47;;;;;;;3.28;1.58;;;2.00;99.90;;;;;;4973139;28;20050;-45
2022/04/02 07:35:14;;;;;;;2.00;1.33;;;2.10;99.90;;;;;;4974062;28;20034;-48
2022/04/02 07:38:07;;;;;;;3.85;1.60;;;2.20;99.90;;;;;;4973795;28;20101;-45
2022/04/02 07:40:41;;;;;;;2.92;1.15;;;2.40;99.90;;;;;;4973883;28;20031;-47
2022/04/02 07:43:37;;;;;;;2.65;1.63;;;2.40;99.90;;;;;;4973519;28;20532;-47
2022/04/02 07:46:06;;;;;;;3.53;1.50;;;2.60;99.90;;;;;;4973773;28;20063;-47
2022/04/02 07:48:36;;;;;;;1.67;1.48;;;2.80;99.90;;;;;;4973155;28;20406;-47
2022/04/02 07:51:10;;;;;;;2.80;1.40;;;2.90;99.90;;;;;;4973402;28;20627;-47
2022/04/02 07:53:43;;;;;;;2.53;1.45;;;3.00;99.90;;;;;;4973019;28;20158;-47
2022/04/02 07:56:19;;;;;;;1.17;1.00;;;3.10;99.90;;;;;;4973336;28;20027;-47
2022/04/02 07:58:50;;;;;;;2.92;1.10;;;3.20;99.90;;;;;;4972321;28;20027;-49
2022/04/02 08:01:18;;;;;;;0.90;0.88;;;3.20;99.80;;;;;;4973361;28;20100;-47
2022/04/02 08:03:45;;;;;;;2.83;1.30;;;3.20;99.40;;;;;;4972388;28;20038;-47
2022/04/02 08:06:13;;;;;;;2.17;1.02;;;3.20;98.60;;;;;;4972467;28;20038;-46
2022/04/02 08:08:40;;;;;;;2.17;1.20;;;3.40;99.50;;;;;;4972833;28;20027;-45
2022/04/02 08:11:08;;;;;;;3.47;1.25;;;3.50;99.60;;;;;;4972617;28;20834;-49
2022/04/02 08:13:36;;;;;;;1.83;1.00;;;3.60;99.90;;;;;;4972592;28;20023;-47
2022/04/02 08:16:02;;;;;;;2.22;1.35;;;3.70;98.90;;;;;;4972822;28;20050;-47
2022/04/02 08:18:27;;;;;;;2.10;1.02;;;3.80;98.80;;;;;;4971798;28;20109;-47
2022/04/02 08:20:54;;;;;;;2.92;1.10;;;3.80;98.80;;;;;;4972486;28;20054;-49
2022/04/02 08:23:20;;;;;;;1.48;1.05;;;4.10;98.60;;;;;;4970423;28;20370;-48
2022/04/02 08:26:15;;;;;;;1.50;0.90;;;4.40;98.50;;;;;;4972329;28;20113;-48
2022/04/02 08:29:03;;;;;;;1.58;0.85;;;4.40;96.80;;;;;;4972349;28;20027;-49
2022/04/02 08:32:06;;;;;;;0.95;0.65;;;4.50;96.80;;;;;;4972408;28;20038;-50
2022/04/02 08:34:56;;;;;;;2.47;0.90;;;4.80;95.60;;;;;;4966619;28;20173;-49
2022/04/02 08:37:24;;;;;;;1.67;1.13;;;4.90;91.70;;;;;;4972347;28;20031;-49
2022/04/02 08:40:06;;;;;;;2.80;0.80;;;4.90;90.70;;;;;;4972420;28;20101;-50
2022/04/02 08:42:37;;;;;;;2.50;0.90;;;5.10;91.30;;;;;;4971996;28;20576;-50
2022/04/02 08:45:08;;;;;;;2.40;0.90;;;5.00;90.00;;;;;;4972428;28;20045;-50
2022/04/02 08:48:11;;;;;;;1.35;0.63;;;5.00;88.40;;;;;;4971975;28;20404;-51
2022/04/02 08:51:01;;;;;;;0.93;0.70;;;4.80;89.60;;;;;;4953332;28;20409;-48
2022/04/02 08:53:50;;;;;;;3.45;0.85;;;4.80;88.20;;;;;;4938017;28;20409;-47
2022/04/02 08:56:25;;;;;;;0.93;0.68;;;4.90;87.40;;;;;;4972406;28;20034;-47
2022/04/02 08:59:06;;;;;;;0.75;0.75;;;4.90;86.00;;;;;;4972417;28;20247;-46
2022/04/02 09:01:43;;;;;;;0.90;0.55;;;4.90;83.70;;;;;;4970951;28;20031;-48
2022/04/02 09:04:41;;;;;;;2.13;1.02;;;4.90;83.40;;;;;;4971996;28;20019;-48
2022/04/02 09:07:28;;;;;;;2.35;0.90;;;5.10;85.10;;;;;;4972184;28;20089;-47
2022/04/02 09:10:17;;;;;;;0.68;0.68;;;5.40;83.60;;;;;;4971790;28;20041;-48
2022/04/02 09:13:09;;;;;;;2.28;0.90;;;5.50;78.50;;;;;;4971694;28;20485;-50
2022/04/02 09:16:07;;;;;;;1.17;0.88;;;5.50;78.60;;;;;;4971884;28;20026;-50
2022/04/02 09:18:46;;;;;;;1.15;0.90;;;5.40;77.00;;;;;;4972088;28;20022;-46
2022/04/02 09:21:34;;;;;;;0.70;0.70;;;5.80;78.80;;;;;;4970885;28;20041;-52
2022/04/02 09:24:00;;;;;;;0.98;0.90;;;5.80;78.60;;;;;;4959481;28;20035;-50
2022/04/02 09:26:46;;;;;;;2.05;1.02;;;6.00;76.80;;;;;;4966978;28;20034;-52
2022/04/02 09:29:15;;;;;;;1.23;0.80;;;5.90;74.30;;;;;;4952515;28;20042;-50
2022/04/02 09:32:12;;;;;;;0.90;0.60;;;5.60;73.40;;;;;;4956055;28;20034;-48
2022/04/02 09:34:50;;;;;;;0.70;0.70;;;5.70;72.80;;;;;;4970706;28;20038;-48
2022/04/02 09:37:52;;;;;;;0.80;0.80;;;5.80;73.20;;;;;;4971133;28;20019;-48
2022/04/02 09:40:23;;;;;;;4.38;1.48;;;6.10;71.70;;;;;;4971256;28;20755;-47
2022/04/02 09:43:00;;;;;;;0.68;0.68;;;6.00;69.20;;;;;;4971267;28;20040;-48
2022/04/02 09:45:40;;;;;;;2.53;0.88;;;5.70;70.90;;;;;;4971137;28;20477;-45
2022/04/02 09:48:16;;;;;;;1.42;1.10;;;5.80;71.60;;;;;;4971081;28;20038;-48
2022/04/02 09:50:44;;;;;;;1.88;1.30;;;6.00;69.80;;;;;;4971463;28;20054;-51
2022/04/02 09:53:23;;;;;;;1.13;0.85;;;6.00;69.20;;;;;;4970739;28;20027;-47
2022/04/02 09:55:55;;;;;;;2.33;1.45;;;5.90;69.80;;;;;;4969950;28;20042;-49
2022/04/02 09:58:58;;;;;;;1.02;0.93;;;5.90;71.70;;;;;;4969903;28;20038;-49
2022/04/02 10:01:55;;;;;;;4.47;1.30;;;5.90;72.00;;;;;;4970919;28;20082;-50
2022/04/02 10:04:30;;;;;;;;;;;6.10;70.80;;;;;;4950715;28;20722;-46
2022/04/02 10:06:56;;;;;;;1.70;1.08;;;6.10;67.30;;;;;;4971553;28;20336;-49
2022/04/02 10:09:30;;;;;;;2.05;1.33;;;6.10;66.70;;;;;;4971232;28;20119;-46
2022/04/02 10:11:58;;;;;;;2.50;1.10;;;6.10;69.10;;;;;;4970860;28;20031;-51
2022/04/02 10:14:29;;;;;;;2.55;1.40;;;6.10;70.10;;;;;;4970834;28;20664;-45
2022/04/02 10:16:57;;;;;;;1.50;0.98;;;6.10;68.40;;;;;;4971024;28;20049;-47
2022/04/02 10:19:29;;;;;;;1.90;0.93;;;6.20;72.00;;;;;;4970871;28;20073;-51
2022/04/02 10:21:57;;;;;;;2.70;0.98;;;6.40;68.30;;;;;;4969702;28;20035;-48
2022/04/02 10:24:25;;;;;;;1.08;0.98;;;6.20;66.70;;;;;;4970202;28;20388;-47
2022/04/02 10:26:56;;;;;;;1.70;0.80;;;6.20;68.60;;;;;;4970885;28;20027;-46
2022/04/02 10:30:11;;;;;;;1.25;1.15;;;6.10;69.60;;;;;;4968530;28;20565;-48
2022/04/02 10:32:49;;;;;;;1.30;1.10;;;6.00;70.20;;;;;;4966156;28;20043;-50
2022/04/02 10:35:15;;;;;;;0.85;0.82;;;5.70;70.00;;;;;;4969660;28;20043;-49
2022/04/02 10:37:43;;;;;;;1.98;1.10;;;5.30;71.40;;;;;;4969329;28;20379;-45
2022/04/02 10:40:12;;;;;;;1.80;1.00;;;5.20;72.40;;;;;;4969791;28;20031;-47
2022/04/02 10:42:42;;;;;;;2.00;0.90;;;5.10;72.70;;;;;;4965199;28;20035;-50
2022/04/02 10:45:13;;;;;;;1.17;0.82;;;4.90;71.70;;;;;;4969910;28;20035;-52
2022/04/02 10:47:46;;;;;;;1.00;0.90;;;5.20;72.00;;;;;;4972846;28;20489;-48
2022/04/02 10:50:17;;;;;;;0.90;0.85;;;5.60;71.60;;;;;;4974061;28;20038;-46
2022/04/02 10:52:46;;;;;;;1.30;1.05;;;5.80;71.60;;;;;;4973539;28;20493;-49
2022/04/02 10:55:17;;;;;;;0.90;0.90;;;6.00;70.10;;;;;;4973793;28;20042;-45
2022/04/02 10:57:43;;;;;;;3.72;0.93;;;6.00;70.30;;;;;;4973432;28;20077;-47
2022/04/02 11:00:10;;;;;;;1.25;1.08;;;6.20;68.50;;;;;;4966435;28;20027;-50
2022/04/02 11:02:43;;;;;;;2.17;0.90;;;6.40;70.20;;;;;;4972138;28;20047;-47
2022/04/02 11:05:14;;;;;;;1.10;0.85;;;6.40;65.60;;;;;;4974213;28;20069;-48
2022/04/02 11:07:49;;;;;;;0.82;0.82;;;6.30;65.30;;;;;;4974375;28;20062;-46
2022/04/02 11:10:19;;;;;;;2.45;1.00;;;6.20;67.70;;;;;;4973953;28;20127;-46
2022/04/02 11:12:46;;;;;;;1.63;1.15;;;6.30;69.70;;;;;;4973836;28;20110;-45
2022/04/02 11:15:20;;;;;;;1.85;0.88;;;6.40;70.50;;;;;;4974094;28;20035;-48
2022/04/02 11:17:52;;;;;;;1.33;1.15;;;6.40;69.40;;;;;;4973937;28;20050;-46
2022/04/02 11:20:23;;;;;;;1.23;1.08;;;6.40;69.50;;;;;;4973802;28;20035;-50
2022/04/02 11:22:52;;;;;;;2.58;1.08;;;6.30;68.80;;;;;;4973945;28;20047;-51
2022/04/02 11:25:28;;;;;;;1.25;1.13;;;6.10;69.00;;;;;;4974010;28;20070;-47
2022/04/02 11:27:55;;;;;;;;;;;5.90;68.80;;;;;;4974560;28;20118;-49
2022/04/02 11:30:26;;;;;;;1.15;1.05;;;5.80;70.00;;;;;;4954578;28;19911;-47
2022/04/02 11:33:01;;;;;;;1.42;1.33;;;5.60;70.20;;;;;;4954047;28;20146;-49
2022/04/02 11:35:30;;;;;;;2.58;1.20;;;5.60;71.40;;;;;;4972365;28;20117;-46
2022/04/02 11:38:17;;;;;;;1.10;1.00;;;5.70;71.60;;;;;;5010494;23;20061;-50
2022/04/02 11:40:59;;;;;;;1.13;0.98;;;5.90;72.30;;;;;;4992901;28;20038;-49
2022/04/02 11:43:36;;;;;;;4.05;1.17;;;6.10;70.00;;;;;;4994020;28;20023;-52
2022/04/02 11:46:04;;;;;;;1.65;1.15;;;6.20;68.80;;;;;;4993239;28;20042;-48
2022/04/02 11:48:34;;;;;;;1.40;1.30;;;6.30;68.60;;;;;;5024048;28;20101;-48
2022/04/02 11:51:13;;;;;;;1.35;1.15;;;6.50;69.50;;;;;;4993887;28;20141;-49
2022/04/02 11:53:40;;;;;;;1.02;1.00;;;6.50;69.80;;;;;;4993591;28;20049;-49
2022/04/02 11:56:31;;;;;;;1.27;1.17;;;6.10;70.90;;;;;;4992951;28;20030;-50
2022/04/02 11:59:00;;;;;;;2.20;1.25;;;5.80;71.10;;;;;;5022791;28;20018;-49
2022/04/02 12:01:38;;;;;;;3.80;1.67;;;5.80;70.40;;;;;;4993135;28;20105;-49
2022/04/02 12:04:17;;;;;;;3.00;1.55;;;5.90;70.10;;;;;;5012449;28;20026;-49
2022/04/02 12:06:46;;;;;;;1.83;1.63;;;6.20;70.10;;;;;;5011496;28;20038;-51
2022/04/02 12:09:18;;;;;;;2.85;1.50;;;6.40;70.40;;;;;;5009938;28;20096;-47
2022/04/02 12:11:58;;;;;;;2.50;1.70;;;6.50;68.00;;;;;;5010178;28;20034;-49
2022/04/02 12:14:27;;;;;;;2.30;1.30;;;6.30;69.50;;;;;;4989758;28;20049;-51
2022/04/02 12:17:10;;;;;;;5.07;1.40;;;6.40;71.50;;;;;;4991967;28;20018;-50
2022/04/02 12:19:37;;;;;;;2.95;1.20;;;6.20;68.90;;;;;;4992757;28;20014;-51
2022/04/02 12:22:14;;;;;;;2.70;1.30;;;6.10;69.00;;;;;;4992380;28;20400;-49
2022/04/02 12:24:42;;;;;;;1.70;1.25;;;5.80;68.40;;;;;;4992270;28;20026;-49
2022/04/02 12:27:08;;;;;;;1.88;1.33;;;5.90;70.00;;;;;;4992215;28;20022;-48
2022/04/02 12:29:34;;;;;;;2.20;1.20;;;6.10;69.90;;;;;;4991549;28;20026;-49
2022/04/02 12:32:01;;;;;;;2.28;1.10;;;6.30;69.60;;;;;;4990238;28;20087;-47
2022/04/02 12:34:28;;;;;;;1.30;1.20;;;6.40;65.90;;;;;;4991038;28;20788;-48
2022/04/02 12:37:03;;;;;;;1.83;1.27;;;6.20;67.00;;;;;;4991689;28;20030;-51
2022/04/02 12:39:28;;;;;;;2.45;1.13;;;6.00;66.20;;;;;;4992107;28;20079;-48
2022/04/02 12:41:54;;;;;;;1.67;1.17;;;5.70;64.70;;;;;;4992960;28;20141;-50
2022/04/02 12:44:26;;;;;;;1.65;1.48;;;5.70;67.30;;;;;;5010946;28;20034;-49
2022/04/02 12:46:52;;;;;;;0.85;0.80;;;5.70;67.10;;;;;;5004019;28;20057;-49
2022/04/02 12:49:31;;;;;;;1.20;1.00;;;5.40;64.30;;;;;;5023656;28;20493;-50
2022/04/02 12:52:24;;;;;;;1.42;0.90;;;5.50;65.70;;;;;;4991743;28;20023;-47
2022/04/02 12:54:52;;;;;;;1.20;1.10;;;5.70;65.30;;;;;;4990741;28;20516;-50
2022/04/02 12:57:18;;;;;;;1.92;0.95;;;5.90;67.00;;;;;;4991709;28;20035;-51
2022/04/02 12:59:52;;;;;;;1.38;1.05;;;6.20;65.70;;;;;;4992070;28;20113;-50
2022/04/02 13:02:22;;;;;;;1.88;0.98;;;6.10;64.20;;;;;;5002448;28;20507;-53
2022/04/02 13:04:55;;;;;;;1.58;1.17;;;6.20;64.90;;;;;;5011266;28;20033;-51
2022/04/02 13:07:22;;;;;;;2.60;1.10;;;6.20;66.20;;;;;;5014322;28;20088;-50
2022/04/02 13:09:52;;;;;;;1.85;1.63;;;6.10;67.60;;;;;;5010179;28;20025;-50
2022/04/02 13:12:22;;;;;;;1.92;1.00;;;6.20;67.00;;;;;;5010494;28;20101;-51